Weather at Ile D'Yeu Port Joinville Heliport

Public forecast

Using degrees Celsius for public forecast. Weather courtesy of forecast.io.

Closest aviation weather report (METAR) to Ile D'Yeu Port Joinville Heliport

Closest report is Saint-Nazaire-Montoir Airport, 35.9 nm (66.4 km) NNE.

2022/12/10 03:00 (retrieved 13 minutes ago)

LFRZ 100300Z AUTO VRB03KT 5000 BR NSC M03/M04 Q1012 TEMPO 0400 FZFG VV///

Closest aviation forecast (TAF) to Ile D'Yeu Port Joinville Heliport

Forecast is more than 6 hours old.

Closest forecast is La Roche-sur-Yon Airport, 40.0 nm (74.1 km) E.

2022/12/09 21:05 (retrieved 6 hours ago)

TAF LFRI 092100Z 0921/1018 CNL